sensor_id;sensor_type;location;lat;lon;timestamp;pressure;altitude;pressure_sealevel;temperature;humidity
47082;BME280;33066;49.296;14.470;2023-02-11T00:00:59;98717.82;;;5.05;31.68
47082;BME280;33066;49.296;14.470;2023-02-11T00:03:25;98723.50;;;5.31;31.60
47082;BME280;33066;49.296;14.470;2023-02-11T00:05:58;98722.39;;;5.14;31.72
47082;BME280;33066;49.296;14.470;2023-02-11T00:08:15;98722.42;;;5.16;31.79
47082;BME280;33066;49.296;14.470;2023-02-11T00:10:41;98721.68;;;5.23;31.72
47082;BME280;33066;49.296;14.470;2023-02-11T00:13:07;98720.14;;;5.17;31.82
47082;BME280;33066;49.296;14.470;2023-02-11T00:15:32;98718.34;;;5.19;31.77
47082;BME280;33066;49.296;14.470;2023-02-11T00:17:58;98716.31;;;5.18;31.78
47082;BME280;33066;49.296;14.470;2023-02-11T00:20:23;98714.33;;;5.34;31.71
47082;BME280;33066;49.296;14.470;2023-02-11T00:22:48;98712.96;;;4.99;31.88
47082;BME280;33066;49.296;14.470;2023-02-11T00:25:13;98706.93;;;5.13;32.02
47082;BME280;33066;49.296;14.470;2023-02-11T00:27:39;98708.54;;;4.86;31.97
47082;BME280;33066;49.296;14.470;2023-02-11T00:30:05;98706.72;;;5.06;32.06
47082;BME280;33066;49.296;14.470;2023-02-11T00:32:30;98711.89;;;5.10;31.92
47082;BME280;33066;49.296;14.470;2023-02-11T00:34:55;98713.92;;;4.83;31.90
47082;BME280;33066;49.296;14.470;2023-02-11T00:37:21;98715.01;;;5.05;31.87
47082;BME280;33066;49.296;14.470;2023-02-11T00:39:46;98715.26;;;5.03;31.92
47082;BME280;33066;49.296;14.470;2023-02-11T00:42:13;98712.22;;;4.82;31.88
47082;BME280;33066;49.296;14.470;2023-02-11T00:44:37;98711.78;;;4.82;31.81
47082;BME280;33066;49.296;14.470;2023-02-11T00:47:03;98708.52;;;4.99;31.86
47082;BME280;33066;49.296;14.470;2023-02-11T00:49:29;98706.97;;;4.70;31.88
47082;BME280;33066;49.296;14.470;2023-02-11T00:51:54;98701.32;;;4.93;31.98
47082;BME280;33066;49.296;14.470;2023-02-11T00:54:20;98700.63;;;4.63;31.94
47082;BME280;33066;49.296;14.470;2023-02-11T00:56:45;98702.01;;;4.60;31.88
47082;BME280;33066;49.296;14.470;2023-02-11T00:59:11;98698.84;;;4.91;31.88
47082;BME280;33066;49.296;14.470;2023-02-11T01:01:36;98698.09;;;4.65;31.88
47082;BME280;33066;49.296;14.470;2023-02-11T01:04:01;98696.49;;;4.57;31.89
47082;BME280;33066;49.296;14.470;2023-02-11T01:06:27;98690.73;;;4.80;31.88
47082;BME280;33066;49.296;14.470;2023-02-11T01:08:52;98686.53;;;4.77;32.04
47082;BME280;33066;49.296;14.470;2023-02-11T01:11:19;98676.79;;;4.74;32.06
47082;BME280;33066;49.296;14.470;2023-02-11T01:13:43;98671.55;;;4.68;32.00
47082;BME280;33066;49.296;14.470;2023-02-11T01:16:09;98669.94;;;4.54;32.18
47082;BME280;33066;49.296;14.470;2023-02-11T01:18:33;98665.16;;;4.64;32.29
47082;BME280;33066;49.296;14.470;2023-02-11T01:20:58;98664.26;;;4.52;32.42
47082;BME280;33066;49.296;14.470;2023-02-11T01:23:24;98659.03;;;4.54;32.40
47082;BME280;33066;49.296;14.470;2023-02-11T01:25:49;98655.21;;;4.35;32.31
47082;BME280;33066;49.296;14.470;2023-02-11T01:28:16;98652.15;;;4.60;32.19
47082;BME280;33066;49.296;14.470;2023-02-11T01:30:39;98651.31;;;4.37;32.10
47082;BME280;33066;49.296;14.470;2023-02-11T01:33:04;98643.91;;;4.49;32.20
47082;BME280;33066;49.296;14.470;2023-02-11T01:35:30;98637.99;;;4.52;32.33
47082;BME280;33066;49.296;14.470;2023-02-11T01:37:55;98627.24;;;4.74;32.22
47082;BME280;33066;49.296;14.470;2023-02-11T01:40:21;98614.09;;;4.49;31.98
47082;BME280;33066;49.296;14.470;2023-02-11T01:42:47;98604.73;;;4.68;31.77
47082;BME280;33066;49.296;14.470;2023-02-11T01:47:37;98599.38;;;4.87;31.50
47082;BME280;33066;49.296;14.470;2023-02-11T01:50:03;98599.02;;;4.90;31.47
47082;BME280;33066;49.296;14.470;2023-02-11T01:52:31;98597.30;;;4.83;31.44
47082;BME280;33066;49.296;14.470;2023-02-11T01:54:58;98594.42;;;5.11;31.45
47082;BME280;33066;49.296;14.470;2023-02-11T01:57:21;98590.86;;;4.71;31.49
47082;BME280;33066;49.296;14.470;2023-02-11T01:59:47;98595.39;;;4.90;31.54
47082;BME280;33066;49.296;14.470;2023-02-11T02:02:12;98593.09;;;4.66;31.54
47082;BME280;33066;49.296;14.470;2023-02-11T02:04:41;98591.71;;;4.94;31.58
47082;BME280;33066;49.296;14.470;2023-02-11T02:07:04;98590.88;;;4.86;31.58
47082;BME280;33066;49.296;14.470;2023-02-11T02:09:28;98592.22;;;4.57;31.69
47082;BME280;33066;49.296;14.470;2023-02-11T02:11:51;98593.34;;;4.80;31.74
47082;BME280;33066;49.296;14.470;2023-02-11T02:14:17;98590.83;;;4.72;31.86
47082;BME280;33066;49.296;14.470;2023-02-11T02:16:43;98590.91;;;4.52;31.84
47082;BME280;33066;49.296;14.470;2023-02-11T02:19:26;98589.81;;;4.56;31.93
47082;BME280;33066;49.296;14.470;2023-02-11T02:24:13;98585.28;;;4.89;31.79
47082;BME280;33066;49.296;14.470;2023-02-11T02:26:40;98585.74;;;4.76;31.65
47082;BME280;33066;49.296;14.470;2023-02-11T02:31:25;98598.38;;;5.10;31.26
47082;BME280;33066;49.296;14.470;2023-02-11T02:33:45;98594.46;;;5.03;31.04
47082;BME280;33066;49.296;14.470;2023-02-11T02:36:13;98593.96;;;5.39;30.92
47082;BME280;33066;49.296;14.470;2023-02-11T02:38:34;98590.89;;;5.35;30.90
47082;BME280;33066;49.296;14.470;2023-02-11T02:41:00;98591.92;;;5.06;30.86
47082;BME280;33066;49.296;14.470;2023-02-11T02:43:24;98590.68;;;5.11;31.03
47082;BME280;33066;49.296;14.470;2023-02-11T02:45:48;98587.10;;;4.97;31.20
47082;BME280;33066;49.296;14.470;2023-02-11T02:48:24;98583.43;;;5.12;31.28
47082;BME280;33066;49.296;14.470;2023-02-11T02:50:39;98580.27;;;4.87;31.54
47082;BME280;33066;49.296;14.470;2023-02-11T02:53:13;98578.38;;;5.00;31.70
47082;BME280;33066;49.296;14.470;2023-02-11T02:55:41;98576.20;;;4.46;31.82
47082;BME280;33066;49.296;14.470;2023-02-11T02:58:04;98579.22;;;4.67;31.93
47082;BME280;33066;49.296;14.470;2023-02-11T03:00:24;98579.72;;;4.68;31.95
47082;BME280;33066;49.296;14.470;2023-02-11T03:02:55;98574.25;;;4.59;31.95
47082;BME280;33066;49.296;14.470;2023-02-11T03:05:15;98570.33;;;4.72;32.04
47082;BME280;33066;49.296;14.470;2023-02-11T03:07:40;98573.74;;;4.57;32.01
47082;BME280;33066;49.296;14.470;2023-02-11T03:10:06;98561.57;;;4.58;31.97
47082;BME280;33066;49.296;14.470;2023-02-11T03:12:29;98558.44;;;4.56;31.98
47082;BME280;33066;49.296;14.470;2023-02-11T03:14:53;98554.14;;;4.72;31.94
47082;BME280;33066;49.296;14.470;2023-02-11T03:17:20;98553.34;;;4.81;31.95
47082;BME280;33066;49.296;14.470;2023-02-11T03:19:45;98547.81;;;4.70;31.82
47082;BME280;33066;49.296;14.470;2023-02-11T03:22:13;98544.86;;;4.70;31.79
47082;BME280;33066;49.296;14.470;2023-02-11T03:24:37;98545.18;;;4.44;31.76
47082;BME280;33066;49.296;14.470;2023-02-11T03:27:03;98545.57;;;4.37;31.83
47082;BME280;33066;49.296;14.470;2023-02-11T03:29:32;98546.38;;;4.64;31.74
47082;BME280;33066;49.296;14.470;2023-02-11T03:31:58;98552.37;;;4.64;31.86
47082;BME280;33066;49.296;14.470;2023-02-11T03:34:24;98559.28;;;4.73;31.79
47082;BME280;33066;49.296;14.470;2023-02-11T03:36:47;98552.57;;;4.71;31.78
47082;BME280;33066;49.296;14.470;2023-02-11T03:39:10;98547.85;;;5.12;31.65
47082;BME280;33066;49.296;14.470;2023-02-11T03:41:35;98545.97;;;4.93;31.53
47082;BME280;33066;49.296;14.470;2023-02-11T03:44:01;98551.64;;;4.76;31.50
47082;BME280;33066;49.296;14.470;2023-02-11T03:46:31;98548.22;;;4.85;31.38
47082;BME280;33066;49.296;14.470;2023-02-11T03:48:54;98548.73;;;5.01;31.28
47082;BME280;33066;49.296;14.470;2023-02-11T03:51:17;98551.60;;;5.32;31.17
47082;BME280;33066;49.296;14.470;2023-02-11T03:53:44;98554.99;;;5.18;31.20
47082;BME280;33066;49.296;14.470;2023-02-11T03:56:09;98557.29;;;5.04;31.36
47082;BME280;33066;49.296;14.470;2023-02-11T03:58:32;98553.24;;;4.61;31.60
47082;BME280;33066;49.296;14.470;2023-02-11T04:00:57;98544.86;;;5.00;31.73
47082;BME280;33066;49.296;14.470;2023-02-11T04:03:23;98541.88;;;4.99;31.79
47082;BME280;33066;49.296;14.470;2023-02-11T04:05:48;98533.33;;;4.47;31.83
47082;BME280;33066;49.296;14.470;2023-02-11T04:08:14;98527.93;;;4.96;31.92
47082;BME280;33066;49.296;14.470;2023-02-11T04:13:01;98512.87;;;4.36;30.99
47082;BME280;33066;49.296;14.470;2023-02-11T04:15:26;98501.74;;;5.95;30.50
47082;BME280;33066;49.296;14.470;2023-02-11T04:17:51;98508.69;;;5.39;30.85
47082;BME280;33066;49.296;14.470;2023-02-11T04:20:17;98492.72;;;5.43;31.04
47082;BME280;33066;49.296;14.470;2023-02-11T04:22:42;98498.11;;;5.47;31.19
47082;BME280;33066;49.296;14.470;2023-02-11T04:25:08;98498.22;;;5.20;31.23
47082;BME280;33066;49.296;14.470;2023-02-11T04:27:33;98495.23;;;5.24;31.25
47082;BME280;33066;49.296;14.470;2023-02-11T04:29:58;98503.09;;;5.20;31.33
47082;BME280;33066;49.296;14.470;2023-02-11T04:32:24;98509.92;;;5.19;31.57
47082;BME280;33066;49.296;14.470;2023-02-11T04:34:50;98516.03;;;5.17;31.70
47082;BME280;33066;49.296;14.470;2023-02-11T04:37:15;98515.55;;;5.12;31.76
47082;BME280;33066;49.296;14.470;2023-02-11T04:39:40;98507.08;;;4.70;31.80
47082;BME280;33066;49.296;14.470;2023-02-11T04:42:06;98497.46;;;5.30;31.69
47082;BME280;33066;49.296;14.470;2023-02-11T04:44:32;98499.99;;;5.45;31.48
47082;BME280;33066;49.296;14.470;2023-02-11T04:46:57;98495.55;;;5.23;31.42
47082;BME280;33066;49.296;14.470;2023-02-11T04:49:23;98496.88;;;5.46;31.42
47082;BME280;33066;49.296;14.470;2023-02-11T04:51:48;98494.73;;;5.22;31.45
47082;BME280;33066;49.296;14.470;2023-02-11T04:54:13;98487.23;;;4.97;31.48
47082;BME280;33066;49.296;14.470;2023-02-11T04:56:39;98479.11;;;5.47;31.48
47082;BME280;33066;49.296;14.470;2023-02-11T04:59:05;98480.42;;;5.50;31.47
47082;BME280;33066;49.296;14.470;2023-02-11T05:01:30;98467.73;;;5.27;31.43
47082;BME280;33066;49.296;14.470;2023-02-11T05:03:56;98463.12;;;5.42;31.42
47082;BME280;33066;49.296;14.470;2023-02-11T05:06:21;98456.07;;;5.46;31.74
47082;BME280;33066;49.296;14.470;2023-02-11T05:08:46;98459.01;;;5.25;32.00
47082;BME280;33066;49.296;14.470;2023-02-11T05:11:15;98451.05;;;5.60;32.00
47082;BME280;33066;49.296;14.470;2023-02-11T05:13:37;98456.41;;;5.51;32.21
47082;BME280;33066;49.296;14.470;2023-02-11T05:16:04;98457.95;;;5.56;32.87
47082;BME280;33066;49.296;14.470;2023-02-11T05:18:29;98454.08;;;5.57;32.94
47082;BME280;33066;49.296;14.470;2023-02-11T05:20:55;98442.93;;;5.36;32.15
47082;BME280;33066;49.296;14.470;2023-02-11T05:23:20;98438.53;;;5.55;32.01
47082;BME280;33066;49.296;14.470;2023-02-11T05:25:46;98442.20;;;5.66;32.22
47082;BME280;33066;49.296;14.470;2023-02-11T05:28:11;98450.93;;;5.67;31.78
47082;BME280;33066;49.296;14.470;2023-02-11T05:30:37;98447.82;;;5.71;31.53
47082;BME280;33066;49.296;14.470;2023-02-11T05:33:02;98452.09;;;5.87;31.75
47082;BME280;33066;49.296;14.470;2023-02-11T05:35:27;98453.92;;;5.50;31.89
47082;BME280;33066;49.296;14.470;2023-02-11T05:37:53;98459.81;;;5.53;31.18
47082;BME280;33066;49.296;14.470;2023-02-11T05:40:18;98465.45;;;5.73;30.92
47082;BME280;33066;49.296;14.470;2023-02-11T05:42:44;98468.78;;;5.63;31.22
47082;BME280;33066;49.296;14.470;2023-02-11T05:45:10;98465.77;;;5.60;31.61
47082;BME280;33066;49.296;14.470;2023-02-11T05:47:35;98469.93;;;5.84;32.17
47082;BME280;33066;49.296;14.470;2023-02-11T05:50:01;98467.45;;;5.61;31.98
47082;BME280;33066;49.296;14.470;2023-02-11T05:52:27;98465.31;;;5.84;32.10
47082;BME280;33066;49.296;14.470;2023-02-11T05:54:52;98473.82;;;5.90;31.88
47082;BME280;33066;49.296;14.470;2023-02-11T05:57:17;98466.36;;;5.69;31.96
47082;BME280;33066;49.296;14.470;2023-02-11T05:59:43;98453.93;;;5.93;31.76
47082;BME280;33066;49.296;14.470;2023-02-11T06:02:09;98445.03;;;5.99;31.80
47082;BME280;33066;49.296;14.470;2023-02-11T06:04:34;98443.55;;;5.90;31.22
47082;BME280;33066;49.296;14.470;2023-02-11T06:07:00;98444.90;;;5.73;31.16
47082;BME280;33066;49.296;14.470;2023-02-11T06:09:26;98429.84;;;5.12;30.94
47082;BME280;33066;49.296;14.470;2023-02-11T06:11:51;98425.96;;;5.31;31.13
47082;BME280;33066;49.296;14.470;2023-02-11T06:14:17;98421.79;;;5.39;31.22
47082;BME280;33066;49.296;14.470;2023-02-11T06:16:42;98420.59;;;4.53;31.32
47082;BME280;33066;49.296;14.470;2023-02-11T06:19:07;98437.14;;;5.89;31.07
47082;BME280;33066;49.296;14.470;2023-02-11T06:21:32;98426.36;;;5.37;31.35
47082;BME280;33066;49.296;14.470;2023-02-11T06:23:58;98429.53;;;5.37;31.31
47082;BME280;33066;49.296;14.470;2023-02-11T06:26:24;98428.95;;;5.65;31.20
47082;BME280;33066;49.296;14.470;2023-02-11T06:28:50;98420.00;;;5.79;31.09
47082;BME280;33066;49.296;14.470;2023-02-11T06:31:16;98412.75;;;5.59;31.07
47082;BME280;33066;49.296;14.470;2023-02-11T06:33:41;98407.38;;;5.42;31.10
47082;BME280;33066;49.296;14.470;2023-02-11T06:36:13;98399.87;;;5.78;31.08
47082;BME280;33066;49.296;14.470;2023-02-11T06:38:32;98404.87;;;5.94;31.01
47082;BME280;33066;49.296;14.470;2023-02-11T06:40:57;98408.40;;;5.97;31.71
47082;BME280;33066;49.296;14.470;2023-02-11T06:43:23;98408.39;;;5.52;31.97
47082;BME280;33066;49.296;14.470;2023-02-11T06:45:52;98416.23;;;5.76;32.16
47082;BME280;33066;49.296;14.470;2023-02-11T06:48:14;98421.06;;;5.50;32.18
47082;BME280;33066;49.296;14.470;2023-02-11T06:50:40;98419.20;;;5.57;32.03
47082;BME280;33066;49.296;14.470;2023-02-11T06:53:06;98412.31;;;5.59;31.46
47082;BME280;33066;49.296;14.470;2023-02-11T06:55:33;98407.99;;;6.23;31.38
47082;BME280;33066;49.296;14.470;2023-02-11T06:57:56;98415.46;;;5.95;31.21
47082;BME280;33066;49.296;14.470;2023-02-11T07:00:22;98408.40;;;6.25;31.08
47082;BME280;33066;49.296;14.470;2023-02-11T07:02:47;98402.46;;;6.03;31.62
47082;BME280;33066;49.296;14.470;2023-02-11T07:05:13;98410.83;;;5.90;32.31
47082;BME280;33066;49.296;14.470;2023-02-11T07:07:38;98417.67;;;6.44;32.50
47082;BME280;33066;49.296;14.470;2023-02-11T07:10:04;98409.24;;;6.02;32.52
47082;BME280;33066;49.296;14.470;2023-02-11T07:12:29;98407.76;;;6.17;32.62
47082;BME280;33066;49.296;14.470;2023-02-11T07:14:55;98399.63;;;6.07;31.61
47082;BME280;33066;49.296;14.470;2023-02-11T07:17:20;98397.25;;;6.51;31.74
47082;BME280;33066;49.296;14.470;2023-02-11T07:19:45;98393.01;;;6.55;31.16
47082;BME280;33066;49.296;14.470;2023-02-11T07:22:11;98397.01;;;6.51;30.96
47082;BME280;33066;49.296;14.470;2023-02-11T07:24:37;98404.33;;;6.73;30.93
47082;BME280;33066;49.296;14.470;2023-02-11T07:27:02;98394.68;;;6.68;30.91
47082;BME280;33066;49.296;14.470;2023-02-11T07:29:28;98395.68;;;6.82;31.06
47082;BME280;33066;49.296;14.470;2023-02-11T07:31:53;98404.70;;;7.06;30.80
47082;BME280;33066;49.296;14.470;2023-02-11T07:34:18;98400.29;;;6.94;30.73
47082;BME280;33066;49.296;14.470;2023-02-11T07:36:43;98401.64;;;6.77;30.65
47082;BME280;33066;49.296;14.470;2023-02-11T07:39:09;98399.56;;;7.04;30.67
47082;BME280;33066;49.296;14.470;2023-02-11T07:41:35;98397.44;;;7.10;30.72
47082;BME280;33066;49.296;14.470;2023-02-11T07:44:01;98395.96;;;6.93;30.82
47082;BME280;33066;49.296;14.470;2023-02-11T07:46:26;98396.11;;;7.00;30.90
47082;BME280;33066;49.296;14.470;2023-02-11T07:48:51;98395.79;;;7.12;30.72
47082;BME280;33066;49.296;14.470;2023-02-11T07:51:19;98405.10;;;7.07;30.71
47082;BME280;33066;49.296;14.470;2023-02-11T07:53:42;98404.52;;;6.95;30.57
47082;BME280;33066;49.296;14.470;2023-02-11T07:56:08;98403.98;;;7.05;30.44
47082;BME280;33066;49.296;14.470;2023-02-11T07:58:33;98398.64;;;6.94;30.58
47082;BME280;33066;49.296;14.470;2023-02-11T08:01:00;98401.88;;;7.25;31.30
47082;BME280;33066;49.296;14.470;2023-02-11T08:03:24;98406.64;;;7.23;31.17
47082;BME280;33066;49.296;14.470;2023-02-11T08:05:50;98400.85;;;7.27;31.10
47082;BME280;33066;49.296;14.470;2023-02-11T08:08:15;98406.78;;;7.02;31.00
47082;BME280;33066;49.296;14.470;2023-02-11T08:10:40;98413.95;;;7.39;31.07
47082;BME280;33066;49.296;14.470;2023-02-11T08:13:06;98419.42;;;7.28;31.07
47082;BME280;33066;49.296;14.470;2023-02-11T08:15:32;98412.82;;;7.39;30.92
47082;BME280;33066;49.296;14.470;2023-02-11T08:17:58;98418.29;;;7.45;30.48
47082;BME280;33066;49.296;14.470;2023-02-11T08:20:23;98415.42;;;7.52;30.24
47082;BME280;33066;49.296;14.470;2023-02-11T08:22:49;98421.33;;;7.72;30.13
47082;BME280;33066;49.296;14.470;2023-02-11T08:25:15;98413.60;;;7.62;29.88
47082;BME280;33066;49.296;14.470;2023-02-11T08:27:40;98416.88;;;7.99;29.82
47082;BME280;33066;49.296;14.470;2023-02-11T08:30:07;98428.35;;;8.05;29.72
47082;BME280;33066;49.296;14.470;2023-02-11T08:32:33;98426.78;;;8.19;29.56
47082;BME280;33066;49.296;14.470;2023-02-11T08:34:56;98426.48;;;8.07;29.62
47082;BME280;33066;49.296;14.470;2023-02-11T08:37:22;98423.10;;;8.57;29.73
47082;BME280;33066;49.296;14.470;2023-02-11T08:39:47;98416.90;;;8.40;29.95
47082;BME280;33066;49.296;14.470;2023-02-11T08:42:13;98419.32;;;8.17;29.88
47082;BME280;33066;49.296;14.470;2023-02-11T08:44:38;98426.79;;;8.55;29.80
47082;BME280;33066;49.296;14.470;2023-02-11T08:47:03;98419.49;;;8.31;29.70
47082;BME280;33066;49.296;14.470;2023-02-11T08:49:29;98420.67;;;8.04;29.91
47082;BME280;33066;49.296;14.470;2023-02-11T08:51:54;98419.94;;;8.32;29.83
47082;BME280;33066;49.296;14.470;2023-02-11T08:54:20;98420.55;;;8.35;29.84
47082;BME280;33066;49.296;14.470;2023-02-11T08:56:50;98421.94;;;8.35;29.85
47082;BME280;33066;49.296;14.470;2023-02-11T08:59:12;98420.03;;;8.34;30.15
47082;BME280;33066;49.296;14.470;2023-02-11T09:01:36;98419.51;;;8.65;29.93
47082;BME280;33066;49.296;14.470;2023-02-11T09:04:02;98413.06;;;8.28;30.04
47082;BME280;33066;49.296;14.470;2023-02-11T09:06:27;98412.35;;;8.60;29.85
47082;BME280;33066;49.296;14.470;2023-02-11T09:08:55;98404.47;;;8.71;29.84
47082;BME280;33066;49.296;14.470;2023-02-11T09:11:21;98412.61;;;8.80;30.18
47082;BME280;33066;49.296;14.470;2023-02-11T09:13:44;98418.02;;;8.67;30.03
47082;BME280;33066;49.296;14.470;2023-02-11T09:16:16;98415.35;;;8.96;29.90
47082;BME280;33066;49.296;14.470;2023-02-11T09:18:34;98414.37;;;8.85;30.16
47082;BME280;33066;49.296;14.470;2023-02-11T09:21:01;98415.64;;;9.22;30.58
47082;BME280;33066;49.296;14.470;2023-02-11T09:23:24;98422.49;;;9.39;30.22
47082;BME280;33066;49.296;14.470;2023-02-11T09:25:50;98423.17;;;9.48;30.01
47082;BME280;33066;49.296;14.470;2023-02-11T09:28:15;98421.27;;;8.99;29.96
47082;BME280;33066;49.296;14.470;2023-02-11T09:30:41;98417.03;;;9.49;29.92
47082;BME280;33066;49.296;14.470;2023-02-11T09:33:06;98414.38;;;9.48;30.16
47082;BME280;33066;49.296;14.470;2023-02-11T09:35:32;98412.58;;;9.39;30.30
47082;BME280;33066;49.296;14.470;2023-02-11T09:37:56;98408.16;;;9.41;30.46
47082;BME280;33066;49.296;14.470;2023-02-11T09:40:22;98406.75;;;9.32;30.34
47082;BME280;33066;49.296;14.470;2023-02-11T09:42:50;98408.82;;;9.34;30.25
47082;BME280;33066;49.296;14.470;2023-02-11T09:45:17;98415.54;;;9.40;30.29
47082;BME280;33066;49.296;14.470;2023-02-11T09:47:45;98423.70;;;9.23;30.33
47082;BME280;33066;49.296;14.470;2023-02-11T09:50:06;98422.18;;;9.53;30.21
47082;BME280;33066;49.296;14.470;2023-02-11T09:52:36;98427.09;;;9.58;30.18
47082;BME280;33066;49.296;14.470;2023-02-11T09:54:57;98426.76;;;9.93;30.02
47082;BME280;33066;49.296;14.470;2023-02-11T09:57:21;98424.86;;;9.80;29.97
47082;BME280;33066;49.296;14.470;2023-02-11T09:59:46;98425.02;;;9.71;29.79
47082;BME280;33066;49.296;14.470;2023-02-11T10:02:18;98427.82;;;9.83;29.75
47082;BME280;33066;49.296;14.470;2023-02-11T10:04:50;98428.29;;;10.08;29.78
47082;BME280;33066;49.296;14.470;2023-02-11T10:07:10;98430.74;;;10.21;29.63
47082;BME280;33066;49.296;14.470;2023-02-11T10:09:39;98420.62;;;10.26;29.44
47082;BME280;33066;49.296;14.470;2023-02-11T10:12:02;98418.85;;;10.05;29.39
47082;BME280;33066;49.296;14.470;2023-02-11T10:14:40;98413.62;;;10.02;31.27
47082;BME280;33066;49.296;14.470;2023-02-11T10:16:57;98412.43;;;9.83;32.27
47082;BME280;33066;49.296;14.470;2023-02-11T10:19:23;98408.03;;;9.64;32.79
47082;BME280;33066;49.296;14.470;2023-02-11T10:21:45;98409.59;;;9.43;33.35
47082;BME280;33066;49.296;14.470;2023-02-11T10:24:09;98412.30;;;9.20;33.98
47082;BME280;33066;49.296;14.470;2023-02-11T10:26:31;98424.66;;;9.37;33.99
47082;BME280;33066;49.296;14.470;2023-02-11T10:28:55;98406.74;;;9.25;34.17
47082;BME280;33066;49.296;14.470;2023-02-11T10:31:22;98411.54;;;9.45;34.14
47082;BME280;33066;49.296;14.470;2023-02-11T10:33:48;98417.87;;;9.30;34.26
47082;BME280;33066;49.296;14.470;2023-02-11T10:36:12;98410.88;;;9.06;34.34
47082;BME280;33066;49.296;14.470;2023-02-11T10:38:36;98405.65;;;9.18;34.26
47082;BME280;33066;49.296;14.470;2023-02-11T10:41:02;98399.91;;;9.42;34.45
47082;BME280;33066;49.296;14.470;2023-02-11T10:43:29;98396.89;;;9.05;34.48
47082;BME280;33066;49.296;14.470;2023-02-11T10:45:54;98394.92;;;9.47;34.47
47082;BME280;33066;49.296;14.470;2023-02-11T10:48:38;98390.52;;;9.35;34.31
47082;BME280;33066;49.296;14.470;2023-02-11T10:50:43;98389.69;;;9.28;34.11
47082;BME280;33066;49.296;14.470;2023-02-11T10:53:15;98385.32;;;9.08;34.14
47082;BME280;33066;49.296;14.470;2023-02-11T10:55:35;98384.56;;;9.22;34.27
47082;BME280;33066;49.296;14.470;2023-02-11T10:58:00;98378.78;;;8.93;34.75
47082;BME280;33066;49.296;14.470;2023-02-11T11:00:34;98367.44;;;9.07;34.71
47082;BME280;33066;49.296;14.470;2023-02-11T11:02:54;98370.99;;;9.10;34.40
47082;BME280;33066;49.296;14.470;2023-02-11T11:05:18;98370.20;;;8.70;34.52
47082;BME280;33066;49.296;14.470;2023-02-11T11:07:50;98355.99;;;8.64;34.52
47082;BME280;33066;49.296;14.470;2023-02-11T11:10:24;98348.79;;;9.11;34.64
47082;BME280;33066;49.296;14.470;2023-02-11T11:12:35;98341.86;;;8.81;34.81
47082;BME280;33066;49.296;14.470;2023-02-11T11:14:59;98326.20;;;8.81;34.80
47082;BME280;33066;49.296;14.470;2023-02-11T11:17:23;98322.65;;;8.95;34.83
47082;BME280;33066;49.296;14.470;2023-02-11T11:19:49;98310.09;;;9.19;34.67
47082;BME280;33066;49.296;14.470;2023-02-11T11:22:20;98324.37;;;9.08;34.59
47082;BME280;33066;49.296;14.470;2023-02-11T11:24:44;98319.54;;;8.94;34.53
47082;BME280;33066;49.296;14.470;2023-02-11T11:27:06;98327.74;;;9.01;34.38
47082;BME280;33066;49.296;14.470;2023-02-11T11:29:33;98332.61;;;9.29;34.31
47082;BME280;33066;49.296;14.470;2023-02-11T11:31:58;98321.43;;;9.25;34.34
47082;BME280;33066;49.296;14.470;2023-02-11T11:34:27;98327.52;;;9.02;34.51
47082;BME280;33066;49.296;14.470;2023-02-11T11:36:47;98325.04;;;9.11;34.59
47082;BME280;33066;49.296;14.470;2023-02-11T11:39:18;98310.90;;;9.23;34.47
47082;BME280;33066;49.296;14.470;2023-02-11T11:44:15;98318.00;;;9.52;34.52
47082;BME280;33066;49.296;14.470;2023-02-11T11:46:31;98325.15;;;9.48;34.50
47082;BME280;33066;49.296;14.470;2023-02-11T11:48:59;98324.03;;;9.44;34.52
47082;BME280;33066;49.296;14.470;2023-02-11T11:51:18;98315.93;;;9.38;34.55
47082;BME280;33066;49.296;14.470;2023-02-11T11:53:50;98318.18;;;9.62;34.30
47082;BME280;33066;49.296;14.470;2023-02-11T11:56:12;98323.21;;;9.52;34.21
47082;BME280;33066;49.296;14.470;2023-02-11T11:58:34;98326.88;;;9.69;34.11
47082;BME280;33066;49.296;14.470;2023-02-11T12:01:10;98317.10;;;9.96;34.25
47082;BME280;33066;49.296;14.470;2023-02-11T12:06:01;98343.49;;;9.79;34.78
47082;BME280;33066;49.296;14.470;2023-02-11T12:08:21;98336.09;;;9.85;34.39
47082;BME280;33066;49.296;14.470;2023-02-11T12:10:51;98339.77;;;9.72;34.27
47082;BME280;33066;49.296;14.470;2023-02-11T12:13:18;98342.38;;;9.38;34.17
47082;BME280;33066;49.296;14.470;2023-02-11T12:15:37;98345.03;;;9.48;34.33
47082;BME280;33066;49.296;14.470;2023-02-11T12:18:10;98343.42;;;9.43;34.52
47082;BME280;33066;49.296;14.470;2023-02-11T12:20:31;98345.13;;;9.16;34.65
47082;BME280;33066;49.296;14.470;2023-02-11T12:22:59;98340.16;;;9.54;34.89
47082;BME280;33066;49.296;14.470;2023-02-11T12:25:24;98350.53;;;9.07;35.36
47082;BME280;33066;49.296;14.470;2023-02-11T12:27:48;98349.34;;;9.15;34.98
47082;BME280;33066;49.296;14.470;2023-02-11T12:30:17;98331.31;;;8.98;35.45
47082;BME280;33066;49.296;14.470;2023-02-11T12:32:37;98333.56;;;8.81;35.74
47082;BME280;33066;49.296;14.470;2023-02-11T12:35:14;98345.89;;;8.79;35.77
47082;BME280;33066;49.296;14.470;2023-02-11T12:37:30;98347.16;;;8.84;35.84
47082;BME280;33066;49.296;14.470;2023-02-11T12:39:50;98337.23;;;8.99;35.66
47082;BME280;33066;49.296;14.470;2023-02-11T12:44:48;98321.55;;;8.88;36.17
47082;BME280;33066;49.296;14.470;2023-02-11T12:47:11;98319.59;;;8.85;36.71
47082;BME280;33066;49.296;14.470;2023-02-11T12:49:45;98314.57;;;8.63;36.52
47082;BME280;33066;49.296;14.470;2023-02-11T12:52:06;98323.05;;;9.15;36.19
47082;BME280;33066;49.296;14.470;2023-02-11T12:54:24;98306.91;;;8.82;36.48
47082;BME280;33066;49.296;14.470;2023-02-11T12:56:51;98303.14;;;9.50;35.83
47082;BME280;33066;49.296;14.470;2023-02-11T12:59:16;98306.82;;;9.56;35.63
47082;BME280;33066;49.296;14.470;2023-02-11T13:01:39;98313.42;;;9.31;35.61
47082;BME280;33066;49.296;14.470;2023-02-11T13:04:10;98313.41;;;9.34;35.86
47082;BME280;33066;49.296;14.470;2023-02-11T13:06:33;98322.48;;;9.10;36.29